N256CH KSNA-KLAX
Flight info
| Callsign | N256CH |
|---|---|
| Flight time | N/A |
| Altitude | 7000 |
| Route | SLI |
| Aircraft | C750/M-VGDW/C |
Departure
| Time | 2026-05-06 00:59 |
|---|---|
| Airport | John Wayne Orange County International Airport (KSNA) |
Arrival
| Time | N/A |
|---|---|
| Airport | Los Angeles International Airport (KLAX) |
| Time | Latitude | Longitude | Altitude | Speed | Heading |
|---|---|---|---|---|---|
| 2026-05-06 00:47 | 33.67333 | -117.86586 | 53 ft | 0 kts | 176° |
| 2026-05-06 00:53 | 33.67332 | -117.86586 | 54 ft | 1 kts | 176° |
| 2026-05-06 00:54 | 33.67324 | -117.86589 | 55 ft | 1 kts | 213° |
| 2026-05-06 00:54 | 33.67320 | -117.86598 | 58 ft | 2 kts | 246° |
| 2026-05-06 00:54 | 33.67321 | -117.86620 | 58 ft | 4 kts | 279° |
| 2026-05-06 00:54 | 33.67335 | -117.86662 | 53 ft | 6 kts | 305° |
| 2026-05-06 00:55 | 33.67348 | -117.86674 | 60 ft | 0 kts | 333° |
| 2026-05-06 00:55 | 33.67353 | -117.86675 | 60 ft | 2 kts | 345° |
| 2026-05-06 00:55 | 33.67382 | -117.86667 | 60 ft | 7 kts | 18° |
| 2026-05-06 00:55 | 33.67432 | -117.86636 | 58 ft | 9 kts | 28° |
| 2026-05-06 00:56 | 33.67491 | -117.86599 | 57 ft | 11 kts | 27° |
| 2026-05-06 00:56 | 33.67560 | -117.86556 | 56 ft | 12 kts | 27° |
| 2026-05-06 00:56 | 33.67636 | -117.86508 | 56 ft | 13 kts | 27° |
| 2026-05-06 00:56 | 33.67722 | -117.86453 | 53 ft | 15 kts | 27° |
| 2026-05-06 00:57 | 33.67817 | -117.86394 | 49 ft | 15 kts | 29° |
| 2026-05-06 00:57 | 33.67910 | -117.86333 | 50 ft | 15 kts | 28° |
| 2026-05-06 00:57 | 33.68008 | -117.86273 | 47 ft | 16 kts | 18° |
| 2026-05-06 00:57 | 33.68080 | -117.86341 | 47 ft | 14 kts | 297° |
| 2026-05-06 00:58 | 33.68117 | -117.86426 | 45 ft | 0 kts | 299° |
| 2026-05-06 00:58 | 33.68124 | -117.86442 | 45 ft | 7 kts | 300° |
| 2026-05-06 00:58 | 33.68140 | -117.86517 | 44 ft | 11 kts | 227° |
| 2026-05-06 00:58 | 33.68115 | -117.86539 | 45 ft | 0 kts | 207° |
| 2026-05-06 00:59 | 33.67910 | -117.86668 | 50 ft | 91 kts | 207° |
| 2026-05-06 00:59 | 33.67139 | -117.87182 | 424 ft | 128 kts | 211° |
| 2026-05-06 00:59 | 33.66419 | -117.87689 | 1395 ft | 113 kts | 212° |
| 2026-05-06 01:00 | 33.65724 | -117.88213 | 1504 ft | 128 kts | 214° |
| 2026-05-06 01:00 | 33.64940 | -117.88828 | 1669 ft | 139 kts | 214° |
| 2026-05-06 01:00 | 33.64108 | -117.89458 | 1860 ft | 144 kts | 213° |
| 2026-05-06 01:00 | 33.63245 | -117.90104 | 2114 ft | 146 kts | 214° |
| 2026-05-06 01:01 | 33.62605 | -117.91017 | 2403 ft | 147 kts | 249° |
| 2026-05-06 01:01 | 33.62579 | -117.92236 | 2793 ft | 150 kts | 287° |
| 2026-05-06 01:01 | 33.63178 | -117.93234 | 3254 ft | 151 kts | 320° |
| 2026-05-06 01:01 | 33.63994 | -117.93985 | 3791 ft | 148 kts | 321° |
| 2026-05-06 01:02 | 33.64814 | -117.94739 | 4251 ft | 149 kts | 321° |
| 2026-05-06 01:02 | 33.65662 | -117.95511 | 4666 ft | 155 kts | 322° |
| 2026-05-06 01:02 | 33.66564 | -117.96260 | 5072 ft | 163 kts | 324° |
| 2026-05-06 01:02 | 33.67602 | -117.97084 | 5049 ft | 198 kts | 326° |
| 2026-05-06 01:03 | 33.68842 | -117.98053 | 5063 ft | 228 kts | 326° |
| 2026-05-06 01:03 | 33.70217 | -117.99125 | 5064 ft | 239 kts | 326° |
| 2026-05-06 01:03 | 33.71637 | -118.00234 | 5055 ft | 242 kts | 326° |
| 2026-05-06 01:03 | 33.73036 | -118.01329 | 5050 ft | 244 kts | 326° |
| 2026-05-06 01:04 | 33.74484 | -118.02463 | 5052 ft | 246 kts | 326° |
| 2026-05-06 01:04 | 33.75920 | -118.03587 | 5049 ft | 247 kts | 326° |
| 2026-05-06 01:04 | 33.77364 | -118.04718 | 5054 ft | 248 kts | 326° |
| 2026-05-06 01:04 | 33.78886 | -118.05703 | 5030 ft | 250 kts | 337° |
| 2026-05-06 01:05 | 33.80530 | -118.06383 | 5039 ft | 250 kts | 341° |
| 2026-05-06 01:05 | 33.82169 | -118.07013 | 5047 ft | 251 kts | 341° |
| 2026-05-06 01:05 | 33.83857 | -118.07660 | 5049 ft | 252 kts | 341° |
| 2026-05-06 01:05 | 33.85536 | -118.08303 | 4935 ft | 257 kts | 341° |
| 2026-05-06 01:06 | 33.87248 | -118.08963 | 4701 ft | 267 kts | 341° |
| 2026-05-06 01:06 | 33.89063 | -118.09663 | 4460 ft | 268 kts | 341° |
| 2026-05-06 01:06 | 33.90787 | -118.10327 | 4211 ft | 260 kts | 341° |
| 2026-05-06 01:06 | 33.92492 | -118.11019 | 3924 ft | 250 kts | 335° |
| 2026-05-06 01:07 | 33.93741 | -118.12376 | 3514 ft | 247 kts | 301° |
| 2026-05-06 01:07 | 33.94413 | -118.14169 | 3626 ft | 225 kts | 291° |
| 2026-05-06 01:07 | 33.94974 | -118.15855 | 3645 ft | 209 kts | 291° |
| 2026-05-06 01:07 | 33.95500 | -118.17449 | 3608 ft | 197 kts | 290° |
| 2026-05-06 01:08 | 33.95682 | -118.19118 | 3175 ft | 205 kts | 267° |
| 2026-05-06 01:08 | 33.95529 | -118.20816 | 2930 ft | 203 kts | 263° |
| 2026-05-06 01:08 | 33.95356 | -118.22467 | 2650 ft | 188 kts | 263° |
| 2026-05-06 01:08 | 33.95204 | -118.23941 | 2404 ft | 169 kts | 263° |
| 2026-05-06 01:09 | 33.95064 | -118.25296 | 2190 ft | 158 kts | 263° |
| 2026-05-06 01:09 | 33.94937 | -118.26557 | 1999 ft | 149 kts | 263° |
| 2026-05-06 01:09 | 33.94811 | -118.27786 | 1805 ft | 143 kts | 263° |
| 2026-05-06 01:09 | 33.94690 | -118.28967 | 1622 ft | 141 kts | 263° |
| 2026-05-06 01:10 | 33.94568 | -118.30132 | 1454 ft | 139 kts | 262° |
| 2026-05-06 01:10 | 33.94447 | -118.31272 | 1276 ft | 139 kts | 263° |
| 2026-05-06 01:10 | 33.94330 | -118.32434 | 1071 ft | 141 kts | 263° |
| 2026-05-06 01:10 | 33.94225 | -118.33597 | 910 ft | 139 kts | 263° |
| 2026-05-06 01:11 | 33.94092 | -118.34760 | 698 ft | 141 kts | 262° |
| 2026-05-06 01:11 | 33.93971 | -118.35917 | 548 ft | 138 kts | 263° |
| 2026-05-06 01:11 | 33.93858 | -118.37074 | 346 ft | 139 kts | 263° |
| 2026-05-06 01:11 | 33.93731 | -118.38216 | 159 ft | 141 kts | 263° |
| 2026-05-06 01:12 | 33.93580 | -118.39534 | 409 ft | 167 kts | 262° |
| 2026-05-06 01:12 | 33.93327 | -118.40877 | 1178 ft | 170 kts | 248° |
| 2026-05-06 01:12 | 33.92681 | -118.42112 | 1867 ft | 183 kts | 232° |
| 2026-05-06 01:12 | 33.91802 | -118.43410 | 2237 ft | 225 kts | 231° |
| 2026-05-06 01:13 | 33.90799 | -118.44931 | 2374 ft | 234 kts | 232° |
| 2026-05-06 01:13 | 33.89779 | -118.46486 | 2346 ft | 239 kts | 232° |
| 2026-05-06 01:13 | 33.88726 | -118.48006 | 2472 ft | 234 kts | 224° |
| 2026-05-06 01:13 | 33.87340 | -118.48990 | 2533 ft | 233 kts | 198° |
| 2026-05-06 01:14 | 33.84598 | -118.47435 | 3058 ft | 244 kts | 113° |
| 2026-05-06 01:14 | 33.84415 | -118.45402 | 3660 ft | 251 kts | 86° |
| 2026-05-06 01:14 | 33.84635 | -118.43329 | 3751 ft | 250 kts | 82° |
| 2026-05-06 01:15 | 33.84894 | -118.41251 | 3681 ft | 253 kts | 81° |
| 2026-05-06 01:15 | 33.85157 | -118.39130 | 3657 ft | 253 kts | 81° |
| 2026-05-06 01:15 | 33.85414 | -118.37066 | 3653 ft | 253 kts | 81° |
| 2026-05-06 01:15 | 33.85673 | -118.34980 | 3650 ft | 252 kts | 81° |
| 2026-05-06 01:16 | 33.85934 | -118.32902 | 3657 ft | 251 kts | 81° |
| 2026-05-06 01:16 | 33.86200 | -118.30778 | 4307 ft | 257 kts | 81° |
| 2026-05-06 01:16 | 33.86477 | -118.28575 | 5049 ft | 282 kts | 81° |
| 2026-05-06 01:16 | 33.86784 | -118.26128 | 5059 ft | 287 kts | 81° |
| 2026-05-06 01:17 | 33.87078 | -118.23834 | 5038 ft | 270 kts | 80° |
| 2026-05-06 01:17 | 33.87895 | -118.21887 | 4942 ft | 259 kts | 45° |
| 2026-05-06 01:17 | 33.89440 | -118.20959 | 4904 ft | 247 kts | 7° |
| 2026-05-06 01:17 | 33.91075 | -118.21384 | 4922 ft | 235 kts | 330° |
| 2026-05-06 01:18 | 33.92370 | -118.22495 | 5046 ft | 224 kts | 321° |
| 2026-05-06 01:18 | 33.93602 | -118.23642 | 5046 ft | 225 kts | 321° |
| 2026-05-06 01:18 | 33.94849 | -118.24796 | 5048 ft | 228 kts | 321° |
| 2026-05-06 01:18 | 33.96114 | -118.25966 | 5048 ft | 230 kts | 321° |
| 2026-05-06 01:19 | 33.97389 | -118.27146 | 5035 ft | 232 kts | 321° |
| 2026-05-06 01:19 | 33.98657 | -118.28322 | 5037 ft | 234 kts | 321° |
| 2026-05-06 01:19 | 33.99948 | -118.29522 | 5041 ft | 235 kts | 321° |
| 2026-05-06 01:19 | 34.01264 | -118.30750 | 5042 ft | 237 kts | 321° |
| 2026-05-06 01:20 | 34.02568 | -118.31967 | 5039 ft | 238 kts | 321° |
| 2026-05-06 01:20 | 34.03878 | -118.33188 | 5047 ft | 239 kts | 321° |
| 2026-05-06 01:20 | 34.05193 | -118.34413 | 5036 ft | 240 kts | 321° |
| 2026-05-06 01:20 | 34.06518 | -118.35645 | 5040 ft | 240 kts | 321° |
| 2026-05-06 01:21 | 34.07826 | -118.36861 | 5046 ft | 241 kts | 321° |
| 2026-05-06 01:21 | 34.09171 | -118.38113 | 5042 ft | 242 kts | 321° |
| 2026-05-06 01:21 | 34.10502 | -118.39352 | 5038 ft | 243 kts | 321° |
| 2026-05-06 01:21 | 34.11845 | -118.40603 | 5034 ft | 245 kts | 321° |
| 2026-05-06 01:22 | 34.13190 | -118.41858 | 5035 ft | 244 kts | 321° |
| 2026-05-06 01:22 | 34.14519 | -118.43094 | 5038 ft | 244 kts | 321° |
| 2026-05-06 01:22 | 34.15864 | -118.44345 | 5038 ft | 245 kts | 321° |
| 2026-05-06 01:22 | 34.17212 | -118.45600 | 5045 ft | 245 kts | 321° |
| 2026-05-06 01:23 | 34.18565 | -118.46859 | 5042 ft | 245 kts | 321° |
| 2026-05-06 01:23 | 34.19914 | -118.48112 | 5041 ft | 245 kts | 322° |
| 2026-05-06 01:23 | 34.21270 | -118.49363 | 5043 ft | 245 kts | 322° |
| 2026-05-06 01:23 | 34.22621 | -118.50618 | 5040 ft | 245 kts | 321° |
| 2026-05-06 01:24 | 34.24166 | -118.51432 | 4982 ft | 246 kts | 349° |
| 2026-05-06 01:24 | 34.25856 | -118.51612 | 5038 ft | 243 kts | 354° |
| 2026-05-06 01:24 | 34.27509 | -118.51964 | 5039 ft | 242 kts | 344° |
| 2026-05-06 01:24 | 34.29099 | -118.52640 | 5044 ft | 242 kts | 338° |
| 2026-05-06 01:25 | 34.30674 | -118.53372 | 5044 ft | 243 kts | 339° |
| 2026-05-06 01:25 | 34.32277 | -118.54038 | 5035 ft | 245 kts | 341° |
| 2026-05-06 01:25 | 34.33889 | -118.54686 | 5040 ft | 244 kts | 340° |
| 2026-05-06 01:25 | 34.35498 | -118.55351 | 5041 ft | 244 kts | 340° |
| 2026-05-06 01:26 | 34.37108 | -118.56025 | 5041 ft | 245 kts | 340° |
| 2026-05-06 01:26 | 34.38721 | -118.56696 | 5040 ft | 245 kts | 340° |
| 2026-05-06 01:26 | 34.40339 | -118.57365 | 5038 ft | 246 kts | 340° |
| 2026-05-06 01:26 | 34.41955 | -118.58037 | 5038 ft | 246 kts | 340° |
| 2026-05-06 01:27 | 34.43606 | -118.58555 | 4981 ft | 247 kts | 355° |
| 2026-05-06 01:27 | 34.45246 | -118.58012 | 4971 ft | 248 kts | 30° |
| 2026-05-06 01:27 | 34.46388 | -118.56488 | 5001 ft | 247 kts | 63° |
| 2026-05-06 01:27 | 34.46677 | -118.54469 | 5010 ft | 246 kts | 96° |
| 2026-05-06 01:28 | 34.46036 | -118.52585 | 5016 ft | 244 kts | 128° |
| 2026-05-06 01:28 | 34.44677 | -118.51410 | 5021 ft | 242 kts | 161° |
| 2026-05-06 01:28 | 34.43038 | -118.51099 | 5070 ft | 238 kts | 176° |
| 2026-05-06 01:28 | 34.41380 | -118.50962 | 5054 ft | 239 kts | 177° |
| 2026-05-06 01:29 | 34.39707 | -118.50815 | 4925 ft | 245 kts | 176° |
| 2026-05-06 01:29 | 34.37978 | -118.50651 | 4551 ft | 254 kts | 176° |
| 2026-05-06 01:29 | 34.36197 | -118.50481 | 4144 ft | 260 kts | 176° |
| 2026-05-06 01:29 | 34.34441 | -118.50312 | 3749 ft | 245 kts | 176° |
| 2026-05-06 01:30 | 34.33333 | -118.50206 | 3484 ft | 236 kts | 176° |
| 2026-05-06 01:30 | 34.31728 | -118.50052 | 3120 ft | 227 kts | 176° |
| 2026-05-06 01:30 | 34.30204 | -118.49905 | 2763 ft | 206 kts | 176° |
| 2026-05-06 01:30 | 34.28872 | -118.49778 | 2461 ft | 180 kts | 176° |
| 2026-05-06 01:31 | 34.27680 | -118.49666 | 2206 ft | 165 kts | 177° |
| 2026-05-06 01:31 | 34.26582 | -118.49565 | 1965 ft | 153 kts | 177° |
| 2026-05-06 01:31 | 34.25536 | -118.49483 | 1685 ft | 149 kts | 178° |
| 2026-05-06 01:31 | 34.24536 | -118.49377 | 1457 ft | 143 kts | 175° |
| 2026-05-06 01:32 | 34.23565 | -118.49274 | 1266 ft | 138 kts | 177° |
| 2026-05-06 01:32 | 34.22607 | -118.49192 | 1073 ft | 137 kts | 176° |
| 2026-05-06 01:32 | 34.21664 | -118.49101 | 856 ft | 134 kts | 177° |
| 2026-05-06 01:32 | 34.20733 | -118.49017 | 939 ft | 142 kts | 177° |
| 2026-05-06 01:33 | 34.19670 | -118.48932 | 1474 ft | 164 kts | 177° |
| 2026-05-06 01:33 | 34.18548 | -118.48794 | 2059 ft | 159 kts | 171° |
| 2026-05-06 01:33 | 34.17500 | -118.48420 | 2555 ft | 154 kts | 163° |
| 2026-05-06 01:33 | 34.16462 | -118.48030 | 3087 ft | 158 kts | 165° |
| 2026-05-06 01:34 | 34.15391 | -118.47652 | 3713 ft | 158 kts | 164° |
| 2026-05-06 01:34 | 34.14355 | -118.47249 | 4389 ft | 161 kts | 163° |
| 2026-05-06 01:34 | 34.13201 | -118.46822 | 4963 ft | 185 kts | 168° |
| 2026-05-06 01:34 | 34.11800 | -118.47072 | 5017 ft | 228 kts | 209° |
| 2026-05-06 01:35 | 34.10792 | -118.48511 | 5011 ft | 231 kts | 250° |
| 2026-05-06 01:35 | 34.10824 | -118.50417 | 5013 ft | 234 kts | 290° |
| 2026-05-06 01:35 | 34.11880 | -118.51877 | 5037 ft | 235 kts | 325° |
| 2026-05-06 01:35 | 34.13312 | -118.52841 | 5070 ft | 237 kts | 331° |
| 2026-05-06 01:36 | 34.14784 | -118.53766 | 5064 ft | 241 kts | 331° |
| 2026-05-06 01:36 | 34.16283 | -118.54711 | 5044 ft | 245 kts | 331° |
| 2026-05-06 01:36 | 34.17800 | -118.55668 | 5042 ft | 247 kts | 331° |
| 2026-05-06 01:36 | 34.19329 | -118.56631 | 5042 ft | 249 kts | 331° |
| 2026-05-06 01:37 | 34.20872 | -118.57603 | 5041 ft | 251 kts | 332° |
| 2026-05-06 01:37 | 34.22483 | -118.58383 | 4969 ft | 254 kts | 351° |
| 2026-05-06 01:37 | 34.24193 | -118.57971 | 4946 ft | 256 kts | 28° |
| 2026-05-06 01:37 | 34.25352 | -118.56383 | 4952 ft | 256 kts | 66° |
| 2026-05-06 01:38 | 34.25478 | -118.54281 | 4984 ft | 254 kts | 104° |
| 2026-05-06 01:38 | 34.24622 | -118.52457 | 5057 ft | 249 kts | 128° |
| 2026-05-06 01:38 | 34.23498 | -118.50855 | 5063 ft | 251 kts | 131° |
| 2026-05-06 01:38 | 34.22352 | -118.49254 | 5053 ft | 252 kts | 131° |
| 2026-05-06 01:39 | 34.21207 | -118.47654 | 5044 ft | 252 kts | 131° |
| 2026-05-06 01:39 | 34.20058 | -118.46051 | 5039 ft | 252 kts | 131° |
| 2026-05-06 01:39 | 34.18914 | -118.44453 | 5042 ft | 251 kts | 131° |
| 2026-05-06 01:39 | 34.17771 | -118.42858 | 5039 ft | 251 kts | 131° |
| 2026-05-06 01:40 | 34.16630 | -118.41263 | 5034 ft | 251 kts | 131° |
| 2026-05-06 01:40 | 34.15487 | -118.39668 | 5030 ft | 251 kts | 131° |
| 2026-05-06 01:40 | 34.14349 | -118.38079 | 5030 ft | 251 kts | 131° |
| 2026-05-06 01:40 | 34.13206 | -118.36484 | 5025 ft | 250 kts | 131° |
| 2026-05-06 01:41 | 34.12068 | -118.34898 | 5028 ft | 250 kts | 131° |
| 2026-05-06 01:41 | 34.10933 | -118.33315 | 5029 ft | 250 kts | 131° |
| 2026-05-06 01:41 | 34.09792 | -118.31721 | 5028 ft | 250 kts | 131° |
| 2026-05-06 01:41 | 34.08655 | -118.30132 | 5029 ft | 250 kts | 131° |
| 2026-05-06 01:42 | 34.07518 | -118.28542 | 5030 ft | 250 kts | 131° |
| 2026-05-06 01:42 | 34.06425 | -118.27015 | 5031 ft | 250 kts | 131° |
| 2026-05-06 01:42 | 34.05286 | -118.25424 | 5029 ft | 251 kts | 131° |
| 2026-05-06 01:42 | 34.04148 | -118.23833 | 5029 ft | 250 kts | 131° |
| 2026-05-06 01:43 | 34.03011 | -118.22245 | 5029 ft | 250 kts | 131° |
| 2026-05-06 01:43 | 34.01874 | -118.20658 | 5026 ft | 250 kts | 131° |
| 2026-05-06 01:43 | 34.00738 | -118.19070 | 5028 ft | 250 kts | 131° |
| 2026-05-06 01:43 | 33.99605 | -118.17485 | 5026 ft | 250 kts | 131° |
| 2026-05-06 01:44 | 33.98470 | -118.15898 | 5025 ft | 250 kts | 131° |
| 2026-05-06 01:44 | 33.97339 | -118.14316 | 5029 ft | 249 kts | 131° |
| 2026-05-06 01:44 | 33.96204 | -118.12729 | 5028 ft | 249 kts | 131° |
| 2026-05-06 01:44 | 33.95073 | -118.11148 | 5028 ft | 249 kts | 131° |
| 2026-05-06 01:45 | 33.93940 | -118.09568 | 5028 ft | 249 kts | 131° |
| 2026-05-06 01:45 | 33.92807 | -118.07987 | 5028 ft | 249 kts | 131° |
| 2026-05-06 01:45 | 33.91676 | -118.06408 | 5029 ft | 249 kts | 131° |
| 2026-05-06 01:45 | 33.90544 | -118.04827 | 5029 ft | 249 kts | 131° |
| 2026-05-06 01:46 | 33.89412 | -118.03248 | 5030 ft | 249 kts | 131° |
| 2026-05-06 01:46 | 33.88279 | -118.01667 | 5029 ft | 249 kts | 131° |
| 2026-05-06 01:46 | 33.87305 | -117.99959 | 4967 ft | 250 kts | 110° |
| 2026-05-06 01:46 | 33.87044 | -117.97883 | 4746 ft | 256 kts | 93° |
| 2026-05-06 01:47 | 33.86994 | -117.95726 | 4450 ft | 259 kts | 91° |
| 2026-05-06 01:47 | 33.86956 | -117.93547 | 4151 ft | 262 kts | 91° |
| 2026-05-06 01:47 | 33.86917 | -117.91353 | 3843 ft | 263 kts | 91° |
| 2026-05-06 01:47 | 33.86878 | -117.89153 | 3529 ft | 264 kts | 91° |
| 2026-05-06 01:48 | 33.86839 | -117.86967 | 3210 ft | 256 kts | 91° |
| 2026-05-06 01:48 | 33.86802 | -117.84881 | 3023 ft | 240 kts | 91° |
| 2026-05-06 01:48 | 33.86766 | -117.82941 | 3024 ft | 228 kts | 91° |
| 2026-05-06 01:48 | 33.86730 | -117.81057 | 3026 ft | 224 kts | 91° |
| 2026-05-06 01:49 | 33.86492 | -117.79235 | 2942 ft | 221 kts | 116° |
| 2026-05-06 01:49 | 33.85389 | -117.78040 | 2904 ft | 216 kts | 160° |
| 2026-05-06 01:49 | 33.83946 | -117.77863 | 3003 ft | 204 kts | 181° |
| 2026-05-06 01:49 | 33.82556 | -117.77989 | 3047 ft | 199 kts | 189° |
| 2026-05-06 01:50 | 33.81193 | -117.78318 | 2911 ft | 201 kts | 198° |
| 2026-05-06 01:50 | 33.79917 | -117.79024 | 2644 ft | 203 kts | 208° |
| 2026-05-06 01:50 | 33.78657 | -117.79829 | 2372 ft | 206 kts | 208° |
| 2026-05-06 01:50 | 33.77396 | -117.80629 | 2095 ft | 201 kts | 208° |